Caergwrle, United Kingdom
Current Conditions -  °F | °C
As of 1:20 PM on Friday 28 Nov 2014 (Local Time) from EGNR Reporting Station
Haze Haze  
Wind Chill: 52°   Ceiling: 1000
Heat Index: 52°   Visibility: 3mi
Dew Point: 50°   Wind: 5mph
Humidity: 94%   Direction: 60°ENE
Pressure: 29.68"   Gusts: NA
Location:  53.11°N, 3.04°W
Report Text: EGNR 281320Z 06004KT 5000 BR BKN010 BKN021 11/10 Q1005
Loading
Personal Weather Stations






























Interactive Weather Map New forecast layout! Learn more

10-Day Weather Forecast

Advertisements
Track Severe Weather on mobile